Time;durP1;ratioP1;P1;durP2;ratioP2;P2;SDS_P1;SDS_P2;PMS_P1;PMS_P2;Temp;Humidity;BMP_temperature;BMP_pressure;BME280_temperature;BME280_humidity;BME280_pressure;Samples;Min_cycle;Max_cycle;Signal;HPM_P1;HPM_P2
2021/12/12 00:00:26;;;;;;;54.30;32.85;;;4.30;99.90;;;;;;5077353;28;20046;-80
2021/12/12 00:03:02;;;;;;;56.65;32.42;;;4.30;99.90;;;;;;5067322;28;20044;-80
2021/12/12 00:05:39;;;;;;;47.92;32.58;;;4.30;99.90;;;;;;5057587;28;20712;-80
2021/12/12 00:08:07;;;;;;;52.05;31.50;;;4.30;99.90;;;;;;5073880;28;20075;-80
2021/12/12 00:10:38;;;;;;;47.60;30.83;;;4.30;99.90;;;;;;5092419;28;20035;-80
2021/12/12 00:13:13;;;;;;;49.55;30.77;;;4.30;99.90;;;;;;5093486;28;20130;-80
2021/12/12 00:15:40;;;;;;;50.35;31.40;;;4.30;99.90;;;;;;5093332;28;20040;-81
2021/12/12 00:18:06;;;;;;;50.75;30.23;;;4.30;99.90;;;;;;5090324;28;20419;-80
2021/12/12 00:20:33;;;;;;;52.03;32.13;;;4.30;99.90;;;;;;5073290;28;20077;-80
2021/12/12 00:22:59;;;;;;;44.55;30.95;;;4.30;99.90;;;;;;5089605;28;20110;-81
2021/12/12 00:25:33;;;;;;;48.97;30.30;;;4.30;99.90;;;;;;5073447;28;20487;-79
2021/12/12 00:27:59;;;;;;;50.10;30.23;;;4.30;99.90;;;;;;5069327;28;20450;-79
2021/12/12 00:30:26;;;;;;;51.03;31.02;;;4.30;99.90;;;;;;5081231;28;20097;-79
2021/12/12 00:32:52;;;;;;;52.30;29.55;;;4.30;99.90;;;;;;5071777;28;20479;-78
2021/12/12 00:35:18;;;;;;;47.22;30.63;;;4.30;99.90;;;;;;5075616;28;20054;-78
2021/12/12 00:37:48;;;;;;;48.15;30.23;;;4.30;99.90;;;;;;5076281;28;20072;-78
2021/12/12 00:40:28;;;;;;;46.55;29.08;;;4.30;99.90;;;;;;5093213;28;20051;-78
2021/12/12 00:42:57;;;;;;;44.90;29.73;;;4.40;99.90;;;;;;5092193;28;20043;-79
2021/12/12 00:45:23;;;;;;;41.13;27.42;;;4.40;99.90;;;;;;5093299;28;20079;-79
2021/12/12 00:47:49;;;;;;;44.60;29.30;;;4.40;99.90;;;;;;5075834;28;20086;-80
2021/12/12 00:50:29;;;;;;;44.50;28.75;;;4.40;99.90;;;;;;5092909;28;20046;-78
2021/12/12 00:52:57;;;;;;;44.47;28.00;;;4.40;99.90;;;;;;5075943;28;20074;-78
2021/12/12 00:55:23;;;;;;;44.67;28.13;;;4.40;99.90;;;;;;5074886;28;20052;-77
2021/12/12 00:57:53;;;;;;;41.22;28.98;;;4.50;99.90;;;;;;5085973;28;20435;-80
2021/12/12 01:00:22;;;;;;;43.08;27.80;;;4.40;99.90;;;;;;5076418;28;20138;-82
2021/12/12 01:02:48;;;;;;;44.08;27.75;;;4.50;99.90;;;;;;5092819;28;20051;-82
2021/12/12 01:05:14;;;;;;;46.55;28.40;;;4.50;99.90;;;;;;5092455;28;20039;-77
2021/12/12 01:07:44;;;;;;;43.05;28.02;;;4.50;99.90;;;;;;5092355;28;20043;-78
2021/12/12 01:10:28;;;;;;;40.58;26.63;;;4.50;99.90;;;;;;5092675;28;20055;-78
2021/12/12 01:12:55;;;;;;;;;;;4.50;99.90;;;;;;5076701;28;20063;-79
2021/12/12 01:15:35;;;;;;;47.80;27.05;;;4.50;99.90;;;;;;5092951;28;19919;-79
2021/12/12 01:18:10;;;;;;;44.53;27.60;;;4.50;99.90;;;;;;5075384;28;20044;-79
2021/12/12 01:20:50;;;;;;;39.03;27.00;;;4.50;99.90;;;;;;5091194;28;20039;-80
2021/12/12 01:23:40;;;;;;;40.80;25.17;;;4.50;99.90;;;;;;5072951;28;20048;-80
2021/12/12 01:26:07;;;;;;;46.35;27.35;;;4.60;99.90;;;;;;5060970;28;20108;-80
2021/12/12 01:28:36;;;;;;;39.33;26.52;;;4.50;99.90;;;;;;5092533;28;20052;-80
2021/12/12 01:31:08;;;;;;;51.70;28.08;;;4.60;99.90;;;;;;5093011;28;20035;-79
2021/12/12 01:33:35;;;;;;;47.40;25.77;;;4.60;99.90;;;;;;5075270;28;20411;-77
2021/12/12 01:36:25;;;;;;;43.15;26.50;;;4.60;99.90;;;;;;5075991;28;20039;-80
2021/12/12 01:38:56;;;;;;;41.72;27.65;;;4.60;99.90;;;;;;5059915;28;20039;-77
2021/12/12 01:41:44;;;;;;;43.35;26.42;;;4.60;99.90;;;;;;5092641;28;20122;-77
2021/12/12 01:44:16;;;;;;;46.78;27.85;;;4.60;99.90;;;;;;5089955;28;20055;-77
2021/12/12 01:47:03;;;;;;;47.50;26.55;;;4.60;99.90;;;;;;5074242;28;20035;-77
2021/12/12 01:49:31;;;;;;;43.30;25.83;;;4.60;99.90;;;;;;5092189;28;20100;-78
2021/12/12 01:51:58;;;;;;;41.10;27.77;;;4.60;99.90;;;;;;5075895;28;20415;-81
2021/12/12 01:54:30;;;;;;;44.03;25.92;;;4.60;99.90;;;;;;5088212;28;20040;-80
2021/12/12 01:56:59;;;;;;;44.20;26.08;;;4.60;99.90;;;;;;5072523;28;20051;-79
2021/12/12 01:59:32;;;;;;;40.03;25.85;;;4.60;99.90;;;;;;5055904;28;20040;-79
2021/12/12 02:02:12;;;;;;;40.40;25.40;;;4.70;99.90;;;;;;5063519;28;20118;-80
2021/12/12 02:04:50;;;;;;;37.58;26.33;;;4.70;99.90;;;;;;5092662;28;20410;-79
2021/12/12 02:07:19;;;;;;;44.38;26.23;;;4.60;99.90;;;;;;5088395;28;20040;-79
2021/12/12 02:09:46;;;;;;;40.33;24.13;;;4.70;99.90;;;;;;5073106;28;20048;-79
2021/12/12 02:12:13;;;;;;;40.17;25.48;;;4.70;99.90;;;;;;5074265;28;20433;-79
2021/12/12 02:14:42;;;;;;;44.25;25.75;;;4.70;99.90;;;;;;5074542;28;20052;-78
2021/12/12 02:17:17;;;;;;;43.03;25.73;;;4.70;99.90;;;;;;5092569;28;20495;-74
2021/12/12 02:20:03;;;;;;;38.55;22.23;;;4.70;99.90;;;;;;5092618;28;20061;-78
2021/12/12 02:22:46;;;;;;;41.03;23.33;;;4.70;99.90;;;;;;5095224;28;20047;-77
2021/12/12 02:36:17;;;;;;;41.70;23.35;;;4.70;99.90;;;;;;5095079;28;20047;-81
2021/12/12 02:38:44;;;;;;;43.28;21.65;;;4.70;99.90;;;;;;5095616;28;20039;-85
2021/12/12 02:41:14;;;;;;;36.58;20.98;;;4.70;99.90;;;;;;5078116;28;20050;-84
2021/12/12 02:43:50;;;;;;;37.75;21.98;;;4.70;99.90;;;;;;5077701;28;20058;-82
2021/12/12 02:46:22;;;;;;;37.63;21.40;;;4.80;99.90;;;;;;5078941;28;20112;-80
2021/12/12 02:48:48;;;;;;;34.85;20.98;;;4.80;99.90;;;;;;5095292;28;20043;-87
2021/12/12 02:51:18;;;;;;;33.83;20.65;;;4.80;99.90;;;;;;5078070;28;20430;-80
2021/12/12 02:53:56;;;;;;;41.30;21.70;;;4.80;99.90;;;;;;5077804;28;20060;-83
2021/12/12 02:56:29;;;;;;;37.83;20.25;;;4.80;99.90;;;;;;5077514;28;20043;-82
2021/12/12 02:58:56;;;;;;;37.75;21.08;;;4.80;99.90;;;;;;5078639;28;20040;-83
2021/12/12 03:01:35;;;;;;;34.53;22.85;;;4.80;99.90;;;;;;5078218;28;20054;-83
2021/12/12 03:04:01;;;;;;;31.48;19.13;;;4.80;99.90;;;;;;5059472;28;20040;-78
2021/12/12 03:06:31;;;;;;;34.90;20.10;;;4.80;99.90;;;;;;5059252;28;20081;-76
2021/12/12 03:09:19;;;;;;;35.60;20.17;;;4.80;99.90;;;;;;5077886;28;20047;-84
2021/12/12 03:11:47;;;;;;;37.45;21.85;;;4.90;99.90;;;;;;5077441;28;20039;-84
2021/12/12 03:14:13;;;;;;;35.70;21.33;;;4.80;99.90;;;;;;5095120;28;20381;-84
2021/12/12 03:16:39;;;;;;;34.72;21.45;;;4.90;99.90;;;;;;5077843;28;20266;-83
2021/12/12 03:19:06;;;;;;;37.53;21.88;;;4.80;99.90;;;;;;5094786;28;20039;-83
2021/12/12 03:21:34;;;;;;;34.92;21.55;;;4.80;99.90;;;;;;5077750;28;20042;-80
2021/12/12 03:24:14;;;;;;;31.27;19.70;;;4.80;99.90;;;;;;5074833;28;20044;-80
2021/12/12 03:26:42;;;;;;;36.00;20.85;;;4.90;99.90;;;;;;5094332;28;20039;-80
2021/12/12 03:29:08;;;;;;;34.85;21.63;;;4.90;99.90;;;;;;5076426;28;20047;-81
2021/12/12 03:31:38;;;;;;;39.35;21.33;;;4.90;99.90;;;;;;5076323;28;20469;-80
2021/12/12 03:34:06;;;;;;;33.53;21.08;;;4.80;99.90;;;;;;5095312;28;20132;-79
2021/12/12 03:36:33;;;;;;;39.00;22.00;;;4.90;99.90;;;;;;5077595;28;20046;-80
2021/12/12 03:39:03;;;;;;;39.83;21.42;;;4.80;99.90;;;;;;5076937;28;20549;-80
2021/12/12 03:41:32;;;;;;;35.10;20.65;;;4.80;99.90;;;;;;5077718;28;20059;-80
2021/12/12 03:44:03;;;;;;;37.53;22.05;;;4.90;99.90;;;;;;5090607;28;20052;-83
2021/12/12 03:46:29;;;;;;;33.45;20.40;;;4.90;99.90;;;;;;5094738;28;20039;-83
2021/12/12 03:48:56;;;;;;;30.27;20.85;;;4.90;99.90;;;;;;5094203;28;20102;-81
2021/12/12 03:51:26;;;;;;;36.03;20.95;;;4.90;99.90;;;;;;5077276;28;20056;-82
2021/12/12 03:53:51;;;;;;;32.70;19.73;;;4.90;99.90;;;;;;5077105;28;20043;-79
2021/12/12 03:56:18;;;;;;;37.17;19.45;;;4.90;99.90;;;;;;5094203;28;20065;-83
2021/12/12 03:58:46;;;;;;;30.55;19.70;;;4.90;99.90;;;;;;5092033;28;20043;-82
2021/12/12 04:01:31;;;;;;;27.95;18.80;;;4.90;99.90;;;;;;5093411;28;20406;-80
2021/12/12 04:04:06;;;;;;;23.80;18.85;;;4.90;99.90;;;;;;5094125;28;20050;-80
2021/12/12 04:06:32;;;;;;;30.77;19.38;;;4.90;99.90;;;;;;5076228;28;20044;-80
2021/12/12 04:08:58;;;;;;;27.05;19.58;;;4.90;99.90;;;;;;5093936;28;20039;-81
2021/12/12 04:11:50;;;;;;;29.95;18.98;;;4.90;99.90;;;;;;5076872;28;20381;-81
2021/12/12 04:14:17;;;;;;;25.83;18.80;;;5.00;99.90;;;;;;5083599;28;20136;-80
2021/12/12 04:16:47;;;;;;;25.88;18.73;;;5.00;99.90;;;;;;5093214;28;20105;-81
2021/12/12 04:19:13;;;;;;;26.90;18.58;;;5.00;99.90;;;;;;5093763;28;20070;-82
2021/12/12 04:21:40;;;;;;;23.85;17.85;;;5.00;99.90;;;;;;5075739;28;20126;-81
2021/12/12 04:24:07;;;;;;;24.80;18.52;;;5.00;99.90;;;;;;5076755;28;20044;-83
2021/12/12 04:26:40;;;;;;;29.35;19.35;;;5.00;99.90;;;;;;5076605;28;20685;-81
2021/12/12 04:29:28;;;;;;;23.20;17.83;;;5.10;99.90;;;;;;5093103;28;20086;-76
2021/12/12 04:31:57;;;;;;;21.92;17.15;;;5.00;99.90;;;;;;5093415;28;20093;-76
2021/12/12 04:34:29;;;;;;;28.30;17.73;;;5.10;99.90;;;;;;5092726;28;20044;-77
2021/12/12 04:36:56;;;;;;;28.38;19.33;;;5.10;99.90;;;;;;5092804;28;20055;-79
2021/12/12 04:39:26;;;;;;;22.20;17.02;;;5.10;99.90;;;;;;5111459;28;20043;-76
2021/12/12 04:41:57;;;;;;;24.48;18.17;;;5.10;99.90;;;;;;5092468;28;20031;-78
2021/12/12 04:44:26;;;;;;;22.70;17.98;;;5.20;99.90;;;;;;5092571;28;20055;-77
2021/12/12 04:50:31;;;;;;;23.85;16.67;;;5.20;99.90;;;;;;5094358;28;20051;-76
2021/12/12 04:53:15;;;;;;;19.42;15.82;;;5.20;99.90;;;;;;5083348;28;20056;-78
2021/12/12 04:56:10;;;;;;;22.75;16.02;;;5.20;99.90;;;;;;5092555;28;20514;-76
2021/12/12 04:58:43;;;;;;;24.65;16.65;;;5.20;99.90;;;;;;5076672;28;20055;-79
2021/12/12 05:01:27;;;;;;;20.70;15.90;;;5.20;99.90;;;;;;5093303;28;20140;-79
2021/12/12 05:04:09;;;;;;;20.35;14.95;;;5.30;99.90;;;;;;5075606;28;20051;-79
2021/12/12 05:06:46;;;;;;;23.73;15.95;;;5.30;99.90;;;;;;5076869;28;20059;-73
2021/12/12 05:09:27;;;;;;;21.27;16.70;;;5.30;99.90;;;;;;5076193;28;20043;-77
2021/12/12 05:12:05;;;;;;;21.00;16.30;;;5.30;99.90;;;;;;5092353;28;20058;-77
2021/12/12 05:14:37;;;;;;;21.15;15.52;;;5.40;99.90;;;;;;5092677;28;20143;-78
2021/12/12 05:17:20;;;;;;;21.20;15.35;;;5.40;99.90;;;;;;5059853;28;20040;-76
2021/12/12 05:19:50;;;;;;;18.83;14.82;;;5.40;99.90;;;;;;5103632;28;20043;-77
2021/12/12 05:22:19;;;;;;;21.90;14.57;;;5.40;99.90;;;;;;5090652;28;20044;-76
2021/12/12 05:24:49;;;;;;;19.55;14.40;;;5.40;99.90;;;;;;5068904;28;20127;-77
2021/12/12 05:27:18;;;;;;;17.33;14.05;;;5.40;99.90;;;;;;5092705;28;20073;-76
2021/12/12 05:29:54;;;;;;;17.38;14.57;;;5.50;99.90;;;;;;5083753;28;20507;-76
2021/12/12 05:32:21;;;;;;;17.85;14.30;;;5.50;99.90;;;;;;5075221;28;20093;-72
2021/12/12 05:34:49;;;;;;;17.27;13.65;;;5.50;99.90;;;;;;5092534;28;20084;-77
2021/12/12 05:37:18;;;;;;;18.40;14.48;;;5.50;99.90;;;;;;5076063;28;20063;-77
2021/12/12 05:39:44;;;;;;;16.23;14.48;;;5.50;99.90;;;;;;5091992;28;20122;-77
2021/12/12 05:42:12;;;;;;;17.25;13.80;;;5.50;99.90;;;;;;5075712;28;20059;-77
2021/12/12 05:44:38;;;;;;;18.02;14.07;;;5.60;99.90;;;;;;5092619;28;20059;-77
2021/12/12 05:47:06;;;;;;;16.90;15.15;;;5.60;99.90;;;;;;5092511;28;20435;-74
2021/12/12 05:49:33;;;;;;;18.00;15.00;;;5.60;99.90;;;;;;5075668;28;20036;-77
2021/12/12 05:52:00;;;;;;;23.85;15.77;;;5.60;99.90;;;;;;5091933;28;20141;-77
2021/12/12 05:54:29;;;;;;;20.73;16.13;;;5.60;99.90;;;;;;5084808;28;20039;-78
2021/12/12 05:56:55;;;;;;;19.33;16.83;;;5.60;99.90;;;;;;5096684;28;20090;-77
2021/12/12 05:59:21;;;;;;;18.92;15.95;;;5.60;99.90;;;;;;5078803;28;20079;-73
2021/12/12 06:01:50;;;;;;;23.35;17.52;;;5.70;99.90;;;;;;5096361;28;20044;-79
2021/12/12 06:04:18;;;;;;;20.08;16.85;;;5.70;99.90;;;;;;5095962;28;20050;-79
2021/12/12 06:06:44;;;;;;;19.52;16.95;;;5.70;99.90;;;;;;5095867;28;20043;-78
2021/12/12 06:09:12;;;;;;;21.92;17.20;;;5.70;99.90;;;;;;5078985;28;20108;-78
2021/12/12 06:11:41;;;;;;;23.30;16.67;;;5.70;99.90;;;;;;5096390;28;20043;-80
2021/12/12 06:14:08;;;;;;;23.58;18.42;;;5.70;99.90;;;;;;5078966;28;20126;-80
2021/12/12 06:16:36;;;;;;;19.33;17.00;;;5.80;99.90;;;;;;5079044;28;20387;-77
2021/12/12 06:19:07;;;;;;;28.15;19.40;;;5.80;99.90;;;;;;5079267;28;20479;-79
2021/12/12 06:21:56;;;;;;;21.75;17.48;;;5.80;99.90;;;;;;5078429;28;20395;-82
2021/12/12 06:24:24;;;;;;;24.20;18.42;;;5.80;99.90;;;;;;5059267;28;20487;-82
2021/12/12 06:26:51;;;;;;;19.08;16.77;;;5.80;99.90;;;;;;5064744;28;20073;-82
2021/12/12 06:29:18;;;;;;;20.02;17.08;;;5.80;99.90;;;;;;5078287;28;20036;-80
2021/12/12 06:31:47;;;;;;;21.48;17.85;;;5.90;99.90;;;;;;5078886;28;20047;-80
2021/12/12 06:34:16;;;;;;;20.40;16.98;;;5.90;99.90;;;;;;5078664;28;20150;-81
2021/12/12 06:36:43;;;;;;;20.42;17.08;;;5.90;99.90;;;;;;5078516;28;20126;-80
2021/12/12 06:39:11;;;;;;;24.27;19.23;;;5.90;99.90;;;;;;5079237;28;20089;-78
2021/12/12 06:41:37;;;;;;;23.63;17.35;;;5.90;99.90;;;;;;5094577;28;20119;-81
2021/12/12 06:44:06;;;;;;;23.15;17.67;;;5.90;99.90;;;;;;5075256;28;20129;-81
2021/12/12 06:46:33;;;;;;;23.15;17.77;;;6.00;99.90;;;;;;5091559;28;20047;-82
2021/12/12 06:48:59;;;;;;;20.40;16.73;;;6.00;99.90;;;;;;5091464;28;20048;-82
2021/12/12 06:51:27;;;;;;;23.08;18.15;;;6.00;99.90;;;;;;5075131;28;20044;-86
2021/12/12 06:53:53;;;;;;;26.10;18.38;;;6.00;99.90;;;;;;5072968;28;20059;-81
2021/12/12 06:56:20;;;;;;;19.88;17.35;;;6.10;99.90;;;;;;5074456;28;20056;-82
2021/12/12 06:58:48;;;;;;;23.08;18.63;;;6.10;99.90;;;;;;5075080;28;20107;-82
2021/12/12 07:01:21;;;;;;;27.23;18.85;;;6.10;99.90;;;;;;5074626;28;20079;-80
2021/12/12 07:03:49;;;;;;;23.35;18.58;;;6.10;99.90;;;;;;5090878;28;20036;-81
2021/12/12 07:06:23;;;;;;;25.40;18.17;;;6.10;99.90;;;;;;5108251;28;20052;-81
2021/12/12 07:08:50;;;;;;;24.80;18.38;;;6.10;99.90;;;;;;5079997;28;20051;-79
2021/12/12 07:11:22;;;;;;;25.30;18.00;;;6.10;99.90;;;;;;5060365;28;20511;-79
2021/12/12 07:13:49;;;;;;;25.58;18.65;;;6.10;99.90;;;;;;5091646;28;20036;-78
2021/12/12 07:16:16;;;;;;;28.70;19.90;;;6.20;99.90;;;;;;5073804;28;20484;-79
2021/12/12 07:18:43;;;;;;;30.65;19.60;;;6.20;99.90;;;;;;5074572;28;20492;-79
2021/12/12 07:21:11;;;;;;;29.02;19.15;;;6.20;99.90;;;;;;5063424;28;20048;-80
2021/12/12 07:23:39;;;;;;;29.75;19.85;;;6.20;99.90;;;;;;5076624;28;20044;-81
2021/12/12 07:26:08;;;;;;;33.55;20.98;;;6.20;99.90;;;;;;5059751;28;20036;-80
2021/12/12 07:28:35;;;;;;;31.88;20.65;;;6.20;99.90;;;;;;5091161;28;20051;-80
2021/12/12 07:31:18;;;;;;;33.03;21.70;;;6.30;99.90;;;;;;5090611;28;20039;-78
2021/12/12 07:33:47;;;;;;;;;;;6.30;99.90;;;;;;5054683;28;20177;-83
2021/12/12 07:36:14;;;;;;;37.40;22.05;;;6.30;99.90;;;;;;5076712;28;19967;-79
2021/12/12 07:38:46;;;;;;;36.00;21.85;;;6.30;99.90;;;;;;5090488;28;20044;-80
2021/12/12 07:41:13;;;;;;;35.92;22.95;;;6.40;99.90;;;;;;5074396;28;20150;-81
2021/12/12 07:43:39;;;;;;;40.50;23.27;;;6.40;99.90;;;;;;5074064;28;20060;-82
2021/12/12 07:46:05;;;;;;;37.13;23.67;;;6.40;99.90;;;;;;5066607;28;20050;-78
2021/12/12 07:48:32;;;;;;;45.45;25.75;;;6.40;99.90;;;;;;5065167;28;20097;-79
2021/12/12 07:50:59;;;;;;;35.15;23.40;;;6.40;99.90;;;;;;5074356;28;20036;-81
2021/12/12 07:53:27;;;;;;;45.53;25.35;;;6.40;99.90;;;;;;5072965;28;20044;-81
2021/12/12 07:55:54;;;;;;;38.45;23.40;;;6.50;99.90;;;;;;5071896;28;20052;-78
2021/12/12 07:58:21;;;;;;;44.67;24.70;;;6.50;99.90;;;;;;5073405;28;20055;-77
2021/12/12 08:00:49;;;;;;;41.72;24.92;;;6.50;99.90;;;;;;5073998;28;20434;-77
2021/12/12 08:03:16;;;;;;;42.15;24.83;;;6.50;99.90;;;;;;5073772;28;20036;-78
2021/12/12 08:05:42;;;;;;;41.83;24.73;;;6.60;99.90;;;;;;5072816;28;20040;-77
2021/12/12 08:08:13;;;;;;;36.92;23.75;;;6.60;99.90;;;;;;5090618;28;20381;-77
2021/12/12 08:10:41;;;;;;;36.90;23.35;;;6.60;99.90;;;;;;5069974;28;20078;-77
2021/12/12 08:13:09;;;;;;;45.47;25.45;;;6.60;99.90;;;;;;5085465;28;20404;-77
2021/12/12 08:15:35;;;;;;;46.40;25.85;;;6.60;99.90;;;;;;5067747;28;20060;-80
2021/12/12 08:18:02;;;;;;;47.38;24.55;;;6.70;99.90;;;;;;5073534;28;20040;-78
2021/12/12 08:20:30;;;;;;;47.60;25.40;;;6.70;99.90;;;;;;5089454;28;20044;-79
2021/12/12 08:22:57;;;;;;;43.58;24.42;;;6.70;99.90;;;;;;5072801;28;20036;-77
2021/12/12 08:25:24;;;;;;;48.08;24.20;;;6.70;99.90;;;;;;5090814;28;20449;-78
2021/12/12 08:27:51;;;;;;;47.20;24.23;;;6.70;99.90;;;;;;5086419;28;20115;-79
2021/12/12 08:30:18;;;;;;;32.47;21.23;;;6.70;99.90;;;;;;5090240;28;20549;-72
2021/12/12 08:32:47;;;;;;;45.97;25.23;;;6.80;99.90;;;;;;5089873;28;20040;-78
2021/12/12 08:35:14;;;;;;;38.97;23.08;;;6.80;99.90;;;;;;5069047;28;20048;-79
2021/12/12 08:37:41;;;;;;;48.03;23.63;;;6.90;99.90;;;;;;5071581;28;20040;-74
2021/12/12 08:40:09;;;;;;;62.50;26.75;;;6.80;99.90;;;;;;5088496;28;20412;-79
2021/12/12 08:42:35;;;;;;;33.33;21.05;;;6.90;99.90;;;;;;5054538;28;20515;-78
2021/12/12 08:45:05;;;;;;;39.85;24.45;;;6.90;99.90;;;;;;5069732;28;20085;-79
2021/12/12 08:47:34;;;;;;;46.33;23.05;;;6.90;99.90;;;;;;5089606;28;20043;-78
2021/12/12 08:50:00;;;;;;;45.88;24.23;;;7.00;99.90;;;;;;5065901;28;20489;-78
2021/12/12 08:52:35;;;;;;;45.67;25.23;;;7.00;99.90;;;;;;5085426;28;20040;-78
2021/12/12 08:55:03;;;;;;;59.15;27.00;;;7.00;99.90;;;;;;5089005;28;20052;-77
2021/12/12 08:57:46;;;;;;;50.03;24.33;;;7.00;99.90;;;;;;5071689;28;20101;-76
2021/12/12 09:00:16;;;;;;;52.85;26.38;;;7.10;99.90;;;;;;5086326;28;20064;-76
2021/12/12 09:02:43;;;;;;;50.03;25.92;;;7.10;99.90;;;;;;5072501;28;20381;-78
2021/12/12 09:05:16;;;;;;;60.47;27.77;;;7.20;99.90;;;;;;5072217;28;20052;-79
2021/12/12 09:07:47;;;;;;;49.00;26.25;;;7.20;99.90;;;;;;5063015;28;20040;-78
2021/12/12 09:10:21;;;;;;;48.38;26.23;;;7.20;99.90;;;;;;5070417;28;20082;-79
2021/12/12 09:12:59;;;;;;;41.78;25.75;;;7.30;99.90;;;;;;5068659;28;20040;-79
2021/12/12 09:15:45;;;;;;;42.45;25.13;;;7.30;99.90;;;;;;5071608;28;20554;-77
2021/12/12 09:18:20;;;;;;;46.90;24.85;;;7.30;99.90;;;;;;5072422;28;20079;-77
2021/12/12 09:20:55;;;;;;;53.20;26.17;;;7.40;99.90;;;;;;5059229;28;20044;-79
2021/12/12 09:23:29;;;;;;;37.55;23.08;;;7.50;99.90;;;;;;5071863;28;20076;-77
2021/12/12 09:26:10;;;;;;;53.20;26.52;;;7.50;99.90;;;;;;5087891;28;20039;-79
2021/12/12 09:28:48;;;;;;;49.08;26.48;;;7.50;99.90;;;;;;5089663;28;20036;-80
2021/12/12 09:31:26;;;;;;;52.75;26.52;;;7.50;99.90;;;;;;5093247;28;20043;-81
2021/12/12 09:34:19;;;;;;;35.30;21.80;;;7.50;99.90;;;;;;5099065;28;20040;-82
2021/12/12 09:36:56;;;;;;;46.83;25.75;;;7.60;99.90;;;;;;5088675;28;20051;-82
2021/12/12 09:39:35;;;;;;;41.13;23.80;;;7.60;99.90;;;;;;5076319;28;20549;-82
2021/12/12 09:42:22;;;;;;;36.28;23.27;;;7.70;99.90;;;;;;5070117;28;20045;-77
2021/12/12 09:45:16;;;;;;;39.95;23.77;;;7.70;99.90;;;;;;5080650;28;20102;-81
2021/12/12 09:51:16;;;;;;;41.47;23.08;;;7.80;99.90;;;;;;5079285;28;20138;-77
2021/12/12 09:53:42;;;;;;;;;;;7.80;99.90;;;;;;5093047;28;20540;-80
2021/12/12 09:56:14;;;;;;;33.35;20.75;;;7.80;99.90;;;;;;5076268;28;20003;-81
2021/12/12 09:58:52;;;;;;;38.08;22.92;;;7.90;99.90;;;;;;5075486;28;20406;-81
2021/12/12 10:01:37;;;;;;;56.65;25.92;;;7.90;99.90;;;;;;5075638;28;20040;-80
2021/12/12 10:04:30;;;;;;;43.47;23.45;;;7.90;99.90;;;;;;5093180;28;20098;-80
2021/12/12 10:07:16;;;;;;;37.85;23.42;;;8.00;99.90;;;;;;5075096;28;20048;-79
2021/12/12 10:09:57;;;;;;;36.75;22.15;;;8.00;99.90;;;;;;5063486;28;20605;-80
2021/12/12 10:12:26;;;;;;;47.53;24.90;;;8.00;99.90;;;;;;5077467;28;20472;-78
2021/12/12 10:14:58;;;;;;;;;;;8.10;99.90;;;;;;5089642;28;20075;-79
2021/12/12 10:17:48;;;;;;;41.15;22.45;;;8.00;99.90;;;;;;5072191;28;19927;-78
2021/12/12 10:20:32;;;;;;;36.72;21.63;;;8.10;99.90;;;;;;5052476;28;20129;-79
2021/12/12 10:23:20;;;;;;;39.33;22.08;;;8.10;99.90;;;;;;5091306;28;20036;-80
2021/12/12 10:25:55;;;;;;;33.08;21.70;;;8.10;99.90;;;;;;5043630;28;20511;-79
2021/12/12 10:28:54;;;;;;;46.47;23.23;;;8.20;99.90;;;;;;5072691;28;20051;-81
2021/12/12 10:31:32;;;;;;;30.27;19.65;;;8.20;99.90;;;;;;5084558;28;20040;-78
2021/12/12 10:34:00;;;;;;;29.95;19.88;;;8.30;99.90;;;;;;5084858;28;20457;-80
2021/12/12 10:36:33;;;;;;;33.42;20.25;;;8.30;99.90;;;;;;5092193;28;20040;-79
2021/12/12 10:39:33;;;;;;;38.78;21.17;;;8.30;99.90;;;;;;5091479;28;20577;-79
2021/12/12 10:42:03;;;;;;;27.80;18.95;;;8.40;99.90;;;;;;5032804;28;20061;-79
2021/12/12 10:44:49;;;;;;;33.67;22.08;;;8.40;99.90;;;;;;5068050;28;20059;-79
2021/12/12 10:47:21;;;;;;;34.92;20.13;;;8.50;99.90;;;;;;5065349;28;20537;-80
2021/12/12 10:50:11;;;;;;;36.85;21.58;;;8.50;99.90;;;;;;5080132;28;20105;-79
2021/12/12 10:52:53;;;;;;;32.42;20.13;;;8.50;99.90;;;;;;5091509;28;20518;-79
2021/12/12 10:55:30;;;;;;;35.53;21.60;;;8.50;99.90;;;;;;5090503;28;20592;-79
2021/12/12 10:58:33;;;;;;;36.65;21.27;;;8.50;99.90;;;;;;5091816;28;20044;-79
2021/12/12 11:01:33;;;;;;;37.03;20.88;;;8.50;99.90;;;;;;5074695;28;20052;-79
2021/12/12 11:04:09;;;;;;;32.40;19.27;;;8.60;99.90;;;;;;5057089;28;20523;-79
2021/12/12 11:06:39;;;;;;;28.17;18.98;;;8.60;99.90;;;;;;5091825;28;20500;-80
2021/12/12 11:09:23;;;;;;;37.55;20.83;;;8.60;99.90;;;;;;5075202;28;20504;-78
2021/12/12 11:11:58;;;;;;;38.83;21.50;;;8.60;99.90;;;;;;5074174;28;20565;-79
2021/12/12 11:14:34;;;;;;;32.20;19.45;;;8.70;99.90;;;;;;5072325;28;20033;-80
2021/12/12 11:17:25;;;;;;;32.88;19.83;;;8.60;99.90;;;;;;5091463;28;20048;-79
2021/12/12 11:20:24;;;;;;;32.92;19.58;;;8.70;99.90;;;;;;5064760;28;20052;-78
2021/12/12 11:22:56;;;;;;;38.65;20.90;;;8.70;99.90;;;;;;5056778;28;20062;-81
2021/12/12 11:25:40;;;;;;;34.55;22.27;;;8.70;99.90;;;;;;5074367;28;20040;-80
2021/12/12 11:28:13;;;;;;;34.40;20.50;;;8.70;99.90;;;;;;5074134;28;20040;-79
2021/12/12 11:30:45;;;;;;;37.35;20.50;;;8.70;99.90;;;;;;5074762;28;20044;-79
2021/12/12 11:33:13;;;;;;;38.50;21.17;;;8.70;99.90;;;;;;5074670;28;20166;-80
2021/12/12 11:35:47;;;;;;;27.70;19.02;;;8.70;99.90;;;;;;5083275;28;20321;-80
2021/12/12 11:38:58;;;;;;;31.63;19.23;;;8.70;99.90;;;;;;5063027;28;20032;-80
2021/12/12 11:41:32;;;;;;;33.30;19.20;;;8.80;99.90;;;;;;5088109;28;20059;-81
2021/12/12 11:44:07;;;;;;;29.77;19.88;;;8.80;99.90;;;;;;5073243;28;20528;-79
2021/12/12 11:46:39;;;;;;;25.35;16.92;;;8.80;99.90;;;;;;5078843;28;20049;-80
2021/12/12 11:49:23;;;;;;;30.55;17.83;;;8.80;99.90;;;;;;5069464;28;20040;-79
2021/12/12 11:52:03;;;;;;;25.27;17.25;;;8.90;99.90;;;;;;5073244;28;20048;-78
2021/12/12 11:54:40;;;;;;;25.80;16.13;;;8.90;99.90;;;;;;5054876;28;20048;-81
2021/12/12 11:57:13;;;;;;;24.70;15.82;;;9.00;99.90;;;;;;5063224;28;20057;-79
2021/12/12 11:59:54;;;;;;;24.38;17.27;;;9.00;99.90;;;;;;5090750;28;20059;-78
2021/12/12 12:02:53;;;;;;;28.63;17.38;;;9.10;99.90;;;;;;5090267;28;20075;-79
2021/12/12 12:05:23;;;;;;;26.67;16.98;;;9.20;99.90;;;;;;5072779;28;20052;-79
2021/12/12 12:08:11;;;;;;;29.50;17.40;;;9.20;99.90;;;;;;5071865;28;20143;-79
2021/12/12 12:11:11;;;;;;;19.85;13.93;;;9.30;99.90;;;;;;5073540;28;20050;-81
2021/12/12 12:13:56;;;;;;;20.02;14.75;;;9.30;99.90;;;;;;5073630;28;20040;-79
2021/12/12 12:16:48;;;;;;;21.83;15.02;;;9.40;99.90;;;;;;5068805;28;20055;-79
2021/12/12 12:19:21;;;;;;;24.67;16.20;;;9.40;99.90;;;;;;5073429;28;20094;-79
2021/12/12 12:22:01;;;;;;;19.83;13.90;;;9.40;99.90;;;;;;5072978;28;20055;-81
2021/12/12 12:24:40;;;;;;;19.27;14.80;;;9.40;99.90;;;;;;5062376;28;20137;-81
2021/12/12 12:27:33;;;;;;;21.25;14.98;;;9.30;99.90;;;;;;5062492;28;20048;-81
2021/12/12 12:30:02;;;;;;;25.40;16.25;;;9.40;99.90;;;;;;5071787;28;20052;-82
2021/12/12 12:33:13;;;;;;;23.05;15.55;;;9.40;99.90;;;;;;5086071;28;20497;-82
2021/12/12 12:36:16;;;;;;;23.67;16.55;;;9.40;99.90;;;;;;5030037;28;20158;-79
2021/12/12 12:39:20;;;;;;;21.05;15.30;;;9.40;99.90;;;;;;5062304;28;20131;-82
2021/12/12 12:42:23;;;;;;;25.38;16.17;;;9.40;99.90;;;;;;5089798;28;20496;-81
2021/12/12 12:45:08;;;;;;;;;;;9.40;99.90;;;;;;5072997;28;20515;-82
2021/12/12 12:48:19;;;;;;;21.50;15.73;;;9.40;99.90;;;;;;5073039;28;19924;-80
2021/12/12 12:51:21;;;;;;;25.90;18.20;;;9.40;99.90;;;;;;5038668;28;20057;-81
2021/12/12 12:53:47;;;;;;;28.25;18.85;;;9.40;99.90;;;;;;5062090;28;20397;-82
2021/12/12 12:56:54;;;;;;;25.15;17.13;;;9.50;99.90;;;;;;5072136;28;20051;-81
2021/12/12 12:59:50;;;;;;;24.65;16.92;;;9.50;99.90;;;;;;5074658;28;20048;-80
2021/12/12 13:02:28;;;;;;;25.73;17.00;;;9.50;99.90;;;;;;5067435;28;20055;-80
2021/12/12 13:05:00;;;;;;;29.27;18.50;;;9.50;99.90;;;;;;5071329;28;20048;-80
2021/12/12 13:07:45;;;;;;;20.10;15.05;;;9.50;99.90;;;;;;5072114;28;20189;-82
2021/12/12 13:10:23;;;;;;;24.00;17.30;;;9.60;99.90;;;;;;5106622;28;20097;-82
2021/12/12 13:13:16;;;;;;;23.83;16.70;;;9.60;99.90;;;;;;5072533;28;20042;-82
2021/12/12 13:16:08;;;;;;;24.90;17.05;;;9.70;99.90;;;;;;5072484;28;20044;-82
2021/12/12 13:19:05;;;;;;;22.98;15.63;;;9.70;99.90;;;;;;5072094;28;20530;-81
2021/12/12 13:21:56;;;;;;;21.48;15.88;;;9.70;99.90;;;;;;5072000;28;20048;-80
2021/12/12 13:24:33;;;;;;;21.38;15.10;;;9.80;99.90;;;;;;5072555;28;20553;-83
2021/12/12 13:27:32;;;;;;;35.10;19.10;;;9.70;99.90;;;;;;5070404;28;20244;-82
2021/12/12 13:30:13;;;;;;;25.77;17.17;;;9.70;99.90;;;;;;5084236;28;20047;-83
2021/12/12 13:33:02;;;;;;;22.83;15.27;;;9.80;99.90;;;;;;5081728;28;20053;-80